Time;durP1;ratioP1;P1;durP2;ratioP2;P2;SDS_P1;SDS_P2;PMS_P1;PMS_P2;Temp;Humidity;BMP_temperature;BMP_pressure;BME280_temperature;BME280_humidity;BME280_pressure;Samples;Min_cycle;Max_cycle;Signal;HPM_P1;HPM_P2
2023/03/24 00:01:02;;;;;;;;;;;;;;;11.24;100.00;99852.16;5053937;28;19917;-77
2023/03/24 00:03:28;;;;;;;;;;;;;;;11.01;100.00;99840.91;5058520;28;19920;-77
2023/03/24 00:05:57;;;;;;;;;;;;;;;10.95;100.00;99856.63;5060466;28;19925;-77
2023/03/24 00:08:22;;;;;;;;;;;;;;;10.58;100.00;99793.00;5056635;28;19963;-77
2023/03/24 00:10:48;;;;;;;;;;;;;;;10.79;100.00;99841.13;5059702;28;19955;-79
2023/03/24 00:13:15;;;;;;;;;;;;;;;10.90;100.00;99823.16;5042918;28;19916;-77
2023/03/24 00:15:40;;;;;;;;;;;;;;;10.82;100.00;99823.88;5043784;28;20015;-79
2023/03/24 00:18:09;;;;;;;;;;;;;;;10.90;100.00;99817.78;5055764;28;19920;-79
2023/03/24 00:20:34;;;;;;;;;;;;;;;10.95;100.00;99812.81;5058023;28;19962;-78
2023/03/24 00:23:00;;;;;;;;;;;;;;;10.83;100.00;99819.34;5036823;28;19968;-79
2023/03/24 00:25:34;;;;;;;;;;;;;;;10.93;100.00;99793.31;5040824;28;19967;-77
2023/03/24 00:28:00;;;;;;;;;;;;;;;10.94;100.00;99790.47;5039059;28;19920;-76
2023/03/24 00:30:25;;;;;;;;;;;;;;;10.99;100.00;99787.31;5059535;28;21207;-80
2023/03/24 00:32:51;;;;;;;;;;;;;;;11.02;100.00;99786.19;5060050;28;19970;-78
2023/03/24 00:35:16;;;;;;;;;;;;;;;11.10;100.00;99795.19;5062870;28;19960;-78
2023/03/24 00:37:43;;;;;;;;;;;;;;;11.22;100.00;99805.75;5051622;28;19921;-77
2023/03/24 00:40:11;;;;;;;;;;;;;;;11.16;100.00;99791.06;5046655;28;20402;-77
2023/03/24 00:42:36;;;;;;;;;;;;;;;11.19;100.00;99795.31;5044702;28;19920;-77
2023/03/24 00:45:02;;;;;;;;;;;;;;;11.31;100.00;99802.16;5046750;28;20430;-81
2023/03/24 00:47:28;;;;;;;;;;;;;;;11.29;100.00;99798.78;5051229;28;19947;-77
2023/03/24 00:49:56;;;;;;;;;;;;;;;11.41;100.00;99780.59;5041861;28;20002;-79
2023/03/24 00:52:23;;;;;;;;;;;;;;;11.44;100.00;99772.25;5054027;28;20338;-78
2023/03/24 00:54:50;;;;;;;;;;;;;;;11.38;100.00;99776.38;5048502;28;20256;-77
2023/03/24 00:57:22;;;;;;;;;;;;;;;11.65;100.00;99755.84;5033022;28;19925;-82
2023/03/24 00:59:51;;;;;;;;;;;;;;;11.51;100.00;99767.97;5050025;28;20008;-79
2023/03/24 01:02:23;;;;;;;;;;;;;;;11.49;100.00;99769.13;5052110;28;20650;-77
2023/03/24 01:04:56;;;;;;;;;;;;;;;11.52;100.00;99747.31;5050105;28;20271;-76
2023/03/24 01:07:21;;;;;;;;;;;;;;;11.48;100.00;99762.06;5041603;28;19928;-76
2023/03/24 01:09:56;;;;;;;;;;;;;;;11.58;100.00;99727.03;5045754;28;19924;-77
2023/03/24 01:12:21;;;;;;;;;;;;;;;11.63;100.00;99763.22;5055809;28;19917;-78
2023/03/24 01:14:47;;;;;;;;;;;;;;;11.66;100.00;99748.59;5053365;28;20022;-76
2023/03/24 01:17:12;;;;;;;;;;;;;;;11.70;100.00;99734.72;5046008;28;20306;-78
2023/03/24 01:19:39;;;;;;;;;;;;;;;11.54;100.00;99731.84;5036603;28;19963;-79
2023/03/24 01:22:04;;;;;;;;;;;;;;;11.62;100.00;99693.47;5055027;28;19912;-77
2023/03/24 01:24:30;;;;;;;;;;;;;;;11.62;100.00;99741.88;5034970;28;19939;-77
2023/03/24 01:26:55;;;;;;;;;;;;;;;11.65;100.00;99738.88;5034416;28;19964;-76
2023/03/24 01:29:20;;;;;;;;;;;;;;;11.55;100.00;99736.22;5049941;28;20147;-75
2023/03/24 01:31:45;;;;;;;;;;;;;;;11.69;100.00;99730.34;5045660;28;19921;-77
2023/03/24 01:34:11;;;;;;;;;;;;;;;11.63;100.00;99720.19;5033457;28;20427;-78
2023/03/24 01:36:36;;;;;;;;;;;;;;;11.45;100.00;99706.75;5038431;28;19923;-81
2023/03/24 01:39:02;;;;;;;;;;;;;;;11.46;100.00;99719.19;5053231;28;20327;-76
2023/03/24 01:41:29;;;;;;;;;;;;;;;11.33;100.00;99732.16;5053629;28;20272;-75
2023/03/24 01:43:54;;;;;;;;;;;;;;;11.43;100.00;99722.16;5036108;28;20323;-76
2023/03/24 01:46:20;;;;;;;;;;;;;;;11.31;100.00;99726.91;5052035;28;19931;-77
2023/03/24 01:49:05;;;;;;;;;;;;;;;11.23;100.00;99716.94;5052846;28;19943;-76
2023/03/24 01:51:33;;;;;;;;;;;;;;;11.48;100.00;99705.59;5053339;28;20369;-79
2023/03/24 01:54:06;;;;;;;;;;;;;;;11.23;100.00;99718.78;5056416;28;20429;-76
2023/03/24 01:56:33;;;;;;;;;;;;;;;11.16;100.00;99705.09;5050686;28;21089;-75
2023/03/24 01:58:59;;;;;;;;;;;;;;;11.20;100.00;99713.72;5045608;28;20387;-78
2023/03/24 02:01:28;;;;;;;;;;;;;;;11.24;100.00;99697.13;5038437;28;19916;-76
2023/03/24 02:03:54;;;;;;;;;;;;;;;11.35;100.00;99685.31;5042869;28;19927;-77
2023/03/24 02:06:19;;;;;;;;;;;;;;;11.31;100.00;99680.41;5051062;28;20286;-78
2023/03/24 02:08:47;;;;;;;;;;;;;;;11.33;100.00;99679.25;5039620;28;19925;-79
2023/03/24 02:11:12;;;;;;;;;;;;;;;11.30;100.00;99695.66;5036140;28;20011;-75
2023/03/24 02:13:37;;;;;;;;;;;;;;;11.29;100.00;99693.16;5037493;28;20011;-75
2023/03/24 02:16:11;;;;;;;;;;;;;;;11.27;100.00;99665.59;5053628;28;20447;-78
2023/03/24 02:18:43;;;;;;;;;;;;;;;11.29;100.00;99691.28;5036052;28;19921;-78
2023/03/24 02:21:18;;;;;;;;;;;;;;;11.24;100.00;99699.81;5035479;28;19969;-79
2023/03/24 02:23:57;;;;;;;;;;;;;;;11.22;100.00;99677.63;5048303;28;19924;-76
2023/03/24 02:26:22;;;;;;;;;;;;;;;11.21;100.00;99677.81;5050982;28;19925;-75
2023/03/24 02:29:26;;;;;;;;;;;;;;;11.37;100.00;99664.50;5051993;28;20015;-78
2023/03/24 02:32:00;;;;;;;;;;;;;;;11.24;100.00;99683.69;5007375;28;19949;-77
2023/03/24 02:34:26;;;;;;;;;;;;;;;11.13;100.00;99681.22;4972081;28;19967;-75
2023/03/24 02:36:51;;;;;;;;;;;;;;;11.13;100.00;99670.47;5032295;28;20003;-77
2023/03/24 02:39:31;;;;;;;;;;;;;;;11.16;100.00;99682.78;5052106;28;19960;-77
2023/03/24 02:42:19;;;;;;;;;;;;;;;11.13;100.00;99696.50;5050199;28;20102;-76
2023/03/24 02:44:54;;;;;;;;;;;;;;;11.11;100.00;99696.66;5048909;28;20382;-74
2023/03/24 02:47:23;;;;;;;;;;;;;;;11.06;100.00;99698.97;5051992;28;19978;-76
2023/03/24 02:49:51;;;;;;;;;;;;;;;11.12;100.00;99689.44;5037292;28;19970;-77
2023/03/24 02:52:17;;;;;;;;;;;;;;;11.12;100.00;99681.38;5053221;28;20409;-75
2023/03/24 02:54:45;;;;;;;;;;;;;;;11.25;100.00;99666.59;5051061;28;20003;-76
2023/03/24 02:57:13;;;;;;;;;;;;;;;11.19;100.00;99677.94;5050788;28;19921;-77
2023/03/24 02:59:40;;;;;;;;;;;;;;;11.12;100.00;99676.00;5041137;28;19931;-78
2023/03/24 03:02:05;;;;;;;;;;;;;;;11.24;100.00;99674.81;5046881;28;20590;-76
2023/03/24 03:04:32;;;;;;;;;;;;;;;11.20;100.00;99676.09;5055740;28;19950;-78
2023/03/24 03:06:58;;;;;;;;;;;;;;;11.37;100.00;99685.19;5056024;28;19932;-78
2023/03/24 03:09:24;;;;;;;;;;;;;;;11.37;100.00;99661.00;5056172;28;20361;-78
2023/03/24 03:11:50;;;;;;;;;;;;;;;11.36;100.00;99681.63;5053904;28;19927;-82
2023/03/24 03:14:27;;;;;;;;;;;;;;;11.38;100.00;99716.44;5037209;28;20314;-77
2023/03/24 03:16:58;;;;;;;;;;;;;;;11.27;100.00;99730.06;5048795;28;19921;-76
2023/03/24 03:19:35;;;;;;;;;;;;;;;11.28;100.00;99723.69;5055967;28;19916;-78
2023/03/24 03:22:01;;;;;;;;;;;;;;;11.28;100.00;99737.13;5054958;28;20341;-79
2023/03/24 03:24:28;;;;;;;;;;;;;;;11.24;100.00;99752.72;5050543;28;19927;-79
2023/03/24 03:26:54;;;;;;;;;;;;;;;11.21;100.00;99753.84;5053961;28;19951;-77
2023/03/24 03:29:22;;;;;;;;;;;;;;;11.02;100.00;99737.84;5032507;28;20317;-78
2023/03/24 03:31:51;;;;;;;;;;;;;;;10.85;100.00;99769.03;5034006;28;19921;-78
2023/03/24 03:34:37;;;;;;;;;;;;;;;10.71;100.00;99768.53;5034098;28;19952;-78
2023/03/24 03:37:07;;;;;;;;;;;;;;;10.47;100.00;99763.66;5036888;28;20338;-78
2023/03/24 03:39:33;;;;;;;;;;;;;;;10.40;100.00;99754.47;5043394;28;19920;-77
2023/03/24 03:41:58;;;;;;;;;;;;;;;10.35;100.00;99768.31;5049802;28;19924;-78
2023/03/24 03:44:24;;;;;;;;;;;;;;;10.25;100.00;99783.56;5046671;28;19920;-79
2023/03/24 03:46:49;;;;;;;;;;;;;;;10.06;100.00;99793.31;5033970;28;19964;-76
2023/03/24 03:49:14;;;;;;;;;;;;;;;10.00;100.00;99807.28;5049034;28;20643;-76
2023/03/24 03:51:39;;;;;;;;;;;;;;;9.87;100.00;99824.53;5050849;28;20427;-76
2023/03/24 03:54:06;;;;;;;;;;;;;;;9.77;100.00;99831.69;5052230;28;19931;-76
2023/03/24 03:56:32;;;;;;;;;;;;;;;9.71;100.00;99814.34;5048693;28;20000;-77
2023/03/24 03:58:57;;;;;;;;;;;;;;;9.59;100.00;99818.13;5050544;28;20420;-76
2023/03/24 04:01:24;;;;;;;;;;;;;;;9.57;100.00;99837.03;5054963;28;20012;-77
2023/03/24 04:03:49;;;;;;;;;;;;;;;9.54;100.00;99831.94;5057019;28;19920;-77
2023/03/24 04:06:25;;;;;;;;;;;;;;;9.50;100.00;99833.19;5055663;28;19928;-77
2023/03/24 04:09:03;;;;;;;;;;;;;;;9.56;100.00;99842.50;5052752;28;19955;-77
2023/03/24 04:11:48;;;;;;;;;;;;;;;9.50;100.00;99846.59;5057716;28;19965;-76
2023/03/24 04:14:13;;;;;;;;;;;;;;;9.48;100.00;99843.19;5056123;28;19916;-77
2023/03/24 04:16:38;;;;;;;;;;;;;;;9.42;100.00;99857.13;5042625;28;19944;-77
2023/03/24 04:19:16;;;;;;;;;;;;;;;9.41;100.00;99863.47;5049617;28;20386;-76
2023/03/24 04:21:47;;;;;;;;;;;;;;;9.40;100.00;99867.16;5047489;28;19931;-76
2023/03/24 04:24:27;;;;;;;;;;;;;;;9.36;100.00;99868.41;5047084;28;20315;-77
2023/03/24 04:26:59;;;;;;;;;;;;;;;9.27;100.00;99880.78;5046358;28;19924;-77
2023/03/24 04:29:41;;;;;;;;;;;;;;;9.27;100.00;99886.16;5047660;28;19921;-77
2023/03/24 04:32:10;;;;;;;;;;;;;;;9.25;100.00;99898.84;5048173;28;20010;-77
2023/03/24 04:34:40;;;;;;;;;;;;;;;9.24;100.00;99921.25;5047932;28;19921;-78
2023/03/24 04:37:12;;;;;;;;;;;;;;;9.25;100.00;99909.53;5050219;28;19926;-77
2023/03/24 04:39:39;;;;;;;;;;;;;;;9.20;100.00;99885.81;5045788;28;20367;-77
2023/03/24 04:42:05;;;;;;;;;;;;;;;9.28;100.00;99910.13;5047921;28;20030;-77
2023/03/24 04:44:31;;;;;;;;;;;;;;;9.26;100.00;99900.53;5049044;28;19924;-77
2023/03/24 04:46:57;;;;;;;;;;;;;;;9.30;100.00;99902.78;5048320;28;20371;-76
2023/03/24 04:49:26;;;;;;;;;;;;;;;9.34;100.00;99900.69;5049360;28;20555;-76
2023/03/24 04:51:51;;;;;;;;;;;;;;;9.34;100.00;99924.78;5049083;28;19920;-76
2023/03/24 04:54:17;;;;;;;;;;;;;;;9.34;100.00;99926.63;5051012;28;20304;-77
2023/03/24 04:56:46;;;;;;;;;;;;;;;9.24;100.00;99927.44;5047449;28;19920;-77
2023/03/24 04:59:11;;;;;;;;;;;;;;;9.21;100.00;99932.22;5029983;28;19936;-78
2023/03/24 05:01:36;;;;;;;;;;;;;;;9.24;100.00;99940.00;5056716;28;19925;-78
2023/03/24 05:04:03;;;;;;;;;;;;;;;9.22;100.00;99944.63;5058176;28;19928;-76
2023/03/24 05:06:28;;;;;;;;;;;;;;;9.23;100.00;99935.63;5056542;28;20031;-77
2023/03/24 05:08:55;;;;;;;;;;;;;;;9.27;100.00;99929.00;5056640;28;19948;-77
2023/03/24 05:11:20;;;;;;;;;;;;;;;9.20;100.00;99938.56;5054429;28;19968;-77
2023/03/24 05:13:48;;;;;;;;;;;;;;;9.17;100.00;99936.13;5054469;28;20194;-76
2023/03/24 05:16:14;;;;;;;;;;;;;;;9.07;100.00;99941.44;5056395;28;19921;-76
2023/03/24 05:18:40;;;;;;;;;;;;;;;9.12;100.00;99947.25;5053631;28;19926;-77
2023/03/24 05:21:05;;;;;;;;;;;;;;;9.03;100.00;99950.72;5058215;28;19924;-77
2023/03/24 05:23:30;;;;;;;;;;;;;;;9.00;100.00;99955.34;5052351;28;19920;-77
2023/03/24 05:25:56;;;;;;;;;;;;;;;8.93;100.00;99959.53;5058675;28;20321;-77
2023/03/24 05:28:21;;;;;;;;;;;;;;;8.96;100.00;99967.28;5053177;28;21592;-77
2023/03/24 05:30:46;;;;;;;;;;;;;;;8.96;100.00;99969.13;5051244;28;20398;-77
2023/03/24 05:33:11;;;;;;;;;;;;;;;8.94;100.00;99974.59;5056192;28;20457;-77
2023/03/24 05:35:37;;;;;;;;;;;;;;;8.85;100.00;99978.91;5054490;28;19931;-77
2023/03/24 05:38:02;;;;;;;;;;;;;;;8.78;100.00;99979.56;5038541;28;19947;-76
2023/03/24 05:40:27;;;;;;;;;;;;;;;8.77;100.00;99985.91;5059563;28;19928;-77
2023/03/24 05:42:52;;;;;;;;;;;;;;;8.70;100.00;99989.09;5058786;28;19921;-76
2023/03/24 05:45:18;;;;;;;;;;;;;;;8.73;100.00;99984.44;5059294;28;19924;-77
2023/03/24 05:47:43;;;;;;;;;;;;;;;8.77;100.00;99996.59;5051778;28;19920;-76
2023/03/24 05:50:08;;;;;;;;;;;;;;;8.72;100.00;99991.66;5049021;28;19932;-76
2023/03/24 05:52:34;;;;;;;;;;;;;;;8.72;100.00;99998.81;5050811;28;20023;-76
2023/03/24 05:54:59;;;;;;;;;;;;;;;8.82;100.00;100002.44;5050423;28;19962;-79
2023/03/24 05:57:25;;;;;;;;;;;;;;;8.87;100.00;100002.91;5053582;28;20027;-77
2023/03/24 05:59:51;;;;;;;;;;;;;;;8.84;100.00;100003.16;5048082;28;19966;-77
2023/03/24 06:02:16;;;;;;;;;;;;;;;8.96;100.00;100009.28;5053177;28;19920;-77
2023/03/24 06:04:45;;;;;;;;;;;;;;;8.89;100.00;100008.09;5052070;28;19928;-76
2023/03/24 06:07:10;;;;;;;;;;;;;;;8.87;100.00;100005.56;5051602;28;20249;-76
2023/03/24 06:09:35;;;;;;;;;;;;;;;8.98;100.00;100007.34;5045786;28;19921;-76
2023/03/24 06:12:01;;;;;;;;;;;;;;;8.95;100.00;100020.97;5045280;28;19921;-76
2023/03/24 06:14:26;;;;;;;;;;;;;;;9.00;100.00;100024.97;5048104;28;20389;-76
2023/03/24 06:16:51;;;;;;;;;;;;;;;8.94;100.00;100024.63;5053054;28;19964;-76
2023/03/24 06:19:21;;;;;;;;;;;;;;;8.96;100.00;100036.91;5048709;28;19920;-76
2023/03/24 06:21:49;;;;;;;;;;;;;;;8.99;100.00;100035.81;5058107;28;20019;-76
2023/03/24 06:24:14;;;;;;;;;;;;;;;9.00;100.00;100034.84;5052756;28;19959;-76
2023/03/24 06:26:41;;;;;;;;;;;;;;;8.97;100.00;100030.56;5048615;28;19932;-75
2023/03/24 06:29:06;;;;;;;;;;;;;;;9.02;100.00;100035.53;5052953;28;19920;-76
2023/03/24 06:31:33;;;;;;;;;;;;;;;9.09;100.00;100035.88;5051990;28;20701;-75
2023/03/24 06:33:58;;;;;;;;;;;;;;;9.20;100.00;100033.13;5050548;28;19921;-75
2023/03/24 06:36:24;;;;;;;;;;;;;;;9.25;100.00;100035.44;5057368;28;20283;-76
2023/03/24 06:38:50;;;;;;;;;;;;;;;9.33;100.00;100035.59;5052145;28;19963;-75
2023/03/24 06:41:15;;;;;;;;;;;;;;;9.29;100.00;100032.34;5054476;28;20051;-75
2023/03/24 06:43:41;;;;;;;;;;;;;;;9.25;100.00;100043.47;5052590;28;20030;-75
2023/03/24 06:46:06;;;;;;;;;;;;;;;9.15;100.00;100048.72;5058064;28;19967;-76
2023/03/24 06:48:32;;;;;;;;;;;;;;;9.17;100.00;100043.25;5043811;28;20004;-75
2023/03/24 06:50:57;;;;;;;;;;;;;;;9.24;100.00;100049.81;5052024;28;19927;-74
2023/03/24 06:53:23;;;;;;;;;;;;;;;9.35;100.00;100056.94;5049106;28;19920;-75
2023/03/24 06:55:48;;;;;;;;;;;;;;;9.57;100.00;100053.22;5053177;28;19925;-75
2023/03/24 06:58:14;;;;;;;;;;;;;;;9.70;100.00;100064.59;5036091;28;20314;-76
2023/03/24 07:00:40;;;;;;;;;;;;;;;9.84;100.00;100062.53;5052711;28;19990;-75
2023/03/24 07:03:06;;;;;;;;;;;;;;;9.95;100.00;100067.84;5055298;28;20442;-76
2023/03/24 07:05:42;;;;;;;;;;;;;;;10.01;100.00;100082.53;5054278;28;19972;-75
2023/03/24 07:08:08;;;;;;;;;;;;;;;10.12;100.00;100071.72;5050143;28;20892;-75
2023/03/24 07:10:34;;;;;;;;;;;;;;;10.31;100.00;100068.25;5052476;28;20489;-76
2023/03/24 07:13:00;;;;;;;;;;;;;;;10.45;100.00;100069.72;5055764;28;19981;-76
2023/03/24 07:15:25;;;;;;;;;;;;;;;10.48;100.00;100060.53;5050339;28;20367;-75
2023/03/24 07:17:50;;;;;;;;;;;;;;;10.56;100.00;100076.81;5049245;28;19920;-75
2023/03/24 07:20:16;;;;;;;;;;;;;;;10.57;100.00;100065.09;5049442;28;19920;-76
2023/03/24 07:22:41;;;;;;;;;;;;;;;10.56;100.00;100078.63;5047899;28;19927;-76
2023/03/24 07:25:07;;;;;;;;;;;;;;;10.69;100.00;100073.00;5033232;28;19924;-74
2023/03/24 07:27:32;;;;;;;;;;;;;;;10.77;100.00;100081.22;5034296;28;20363;-75
2023/03/24 07:29:58;;;;;;;;;;;;;;;10.79;100.00;100088.13;5051209;28;19927;-76
2023/03/24 07:32:23;;;;;;;;;;;;;;;10.86;100.00;100080.38;5047587;28;19927;-76
2023/03/24 07:34:48;;;;;;;;;;;;;;;10.91;100.00;100088.84;5050450;28;19924;-75
2023/03/24 07:37:14;;;;;;;;;;;;;;;10.92;100.00;100076.28;5049749;28;20370;-76
2023/03/24 07:39:40;;;;;;;;;;;;;;;11.01;100.00;100071.91;5047678;28;20336;-76
2023/03/24 07:42:05;;;;;;;;;;;;;;;11.13;100.00;100078.81;5051388;28;19920;-76
2023/03/24 07:44:30;;;;;;;;;;;;;;;11.09;100.00;100101.59;5048867;28;20344;-74
2023/03/24 07:46:55;;;;;;;;;;;;;;;11.07;100.00;100091.00;5051243;28;19924;-75
2023/03/24 07:49:21;;;;;;;;;;;;;;;11.10;100.00;100092.56;5052942;28;19921;-73
2023/03/24 07:51:46;;;;;;;;;;;;;;;11.26;100.00;100089.28;5055677;28;19928;-75
2023/03/24 07:54:11;;;;;;;;;;;;;;;11.27;100.00;100095.50;5051158;28;19927;-76
2023/03/24 07:56:36;;;;;;;;;;;;;;;11.28;100.00;100100.72;5051849;28;20028;-75
2023/03/24 07:59:02;;;;;;;;;;;;;;;11.30;100.00;100079.09;5052788;28;20346;-76
2023/03/24 08:01:27;;;;;;;;;;;;;;;11.78;100.00;100101.53;5047391;28;19921;-75
2023/03/24 08:03:53;;;;;;;;;;;;;;;11.81;100.00;100102.06;5049670;28;20228;-74
2023/03/24 08:06:18;;;;;;;;;;;;;;;11.68;100.00;100110.47;5053067;28;19970;-75
2023/03/24 08:08:43;;;;;;;;;;;;;;;11.83;100.00;100112.69;5043081;28;19921;-75
2023/03/24 08:11:08;;;;;;;;;;;;;;;11.62;100.00;100107.50;5056949;28;20267;-75
2023/03/24 08:13:34;;;;;;;;;;;;;;;11.66;100.00;100111.56;5054829;28;21583;-75
2023/03/24 08:15:59;;;;;;;;;;;;;;;11.64;100.00;100121.66;5052619;28;19990;-75
2023/03/24 08:18:24;;;;;;;;;;;;;;;11.57;100.00;100125.91;5042607;28;20279;-76
2023/03/24 08:20:52;;;;;;;;;;;;;;;11.79;100.00;100124.72;5048028;28;19924;-76
2023/03/24 08:23:18;;;;;;;;;;;;;;;11.88;100.00;100121.16;5047030;28;19920;-74
2023/03/24 08:25:43;;;;;;;;;;;;;;;11.77;100.00;100132.09;5046069;28;19943;-76
2023/03/24 08:28:08;;;;;;;;;;;;;;;11.74;100.00;100124.31;5046527;28;19924;-75
2023/03/24 08:30:34;;;;;;;;;;;;;;;12.04;100.00;100133.19;5046376;28;19924;-77
2023/03/24 08:33:00;;;;;;;;;;;;;;;12.11;100.00;100126.22;5049858;28;19920;-76
2023/03/24 08:35:30;;;;;;;;;;;;;;;12.01;100.00;100134.31;5050492;28;20445;-77
2023/03/24 08:37:58;;;;;;;;;;;;;;;11.99;100.00;100133.63;5050479;28;19965;-76
2023/03/24 08:40:23;;;;;;;;;;;;;;;11.92;100.00;100148.63;5050687;28;20567;-75
2023/03/24 08:42:49;;;;;;;;;;;;;;;11.74;100.00;100141.28;5045530;28;19928;-76
2023/03/24 08:45:15;;;;;;;;;;;;;;;11.91;100.00;100141.56;5051920;28;19927;-74
2023/03/24 08:47:40;;;;;;;;;;;;;;;12.29;100.00;100147.81;5049879;28;19916;-75
2023/03/24 08:50:06;;;;;;;;;;;;;;;12.37;100.00;100156.03;5046002;28;19963;-77
2023/03/24 08:52:32;;;;;;;;;;;;;;;12.34;100.00;100145.53;5051810;28;19920;-74
2023/03/24 08:54:58;;;;;;;;;;;;;;;12.21;100.00;100159.34;5045280;28;19970;-76
2023/03/24 08:57:23;;;;;;;;;;;;;;;12.33;100.00;100146.53;5030243;28;19927;-76
2023/03/24 08:59:48;;;;;;;;;;;;;;;12.20;100.00;100156.78;5048262;28;20408;-76
2023/03/24 09:02:13;;;;;;;;;;;;;;;12.28;100.00;100157.75;5048901;28;19927;-77
2023/03/24 09:04:40;;;;;;;;;;;;;;;12.11;100.00;100158.50;5036121;28;19932;-77
2023/03/24 09:07:05;;;;;;;;;;;;;;;11.98;100.00;100165.03;5031308;28;19931;-77
2023/03/24 09:09:31;;;;;;;;;;;;;;;11.89;100.00;100167.75;5034934;28;20354;-77
2023/03/24 09:11:57;;;;;;;;;;;;;;;12.00;100.00;100165.78;5053470;28;19921;-76
2023/03/24 09:14:22;;;;;;;;;;;;;;;12.00;100.00;100163.09;5055999;28;19917;-77
2023/03/24 09:16:48;;;;;;;;;;;;;;;12.16;100.00;100169.69;5055185;28;19954;-76
2023/03/24 09:19:14;;;;;;;;;;;;;;;11.96;100.00;100160.78;5030358;28;19920;-76
2023/03/24 09:21:41;;;;;;;;;;;;;;;12.03;100.00;100166.47;5052801;28;20316;-76
2023/03/24 09:24:06;;;;;;;;;;;;;;;11.70;100.00;100169.47;5054519;28;19989;-76
2023/03/24 09:26:32;;;;;;;;;;;;;;;11.59;100.00;100177.69;5049150;28;20402;-76
2023/03/24 09:28:58;;;;;;;;;;;;;;;11.56;100.00;100178.81;5052082;28;19956;-74
2023/03/24 09:31:23;;;;;;;;;;;;;;;11.56;100.00;100181.50;5051724;28;20035;-76
2023/03/24 09:33:48;;;;;;;;;;;;;;;11.63;100.00;100166.50;5047647;28;20120;-76
2023/03/24 09:36:13;;;;;;;;;;;;;;;11.98;100.00;100189.25;5051829;28;19927;-75
2023/03/24 09:38:38;;;;;;;;;;;;;;;12.07;100.00;100186.69;5054892;28;19931;-75
2023/03/24 09:41:10;;;;;;;;;;;;;;;12.00;100.00;100184.59;5048469;28;19927;-75
2023/03/24 09:43:36;;;;;;;;;;;;;;;11.79;100.00;100184.75;5050119;28;19921;-77
2023/03/24 09:46:02;;;;;;;;;;;;;;;11.82;100.00;100183.59;5052255;28;20338;-76
2023/03/24 09:48:33;;;;;;;;;;;;;;;12.06;100.00;100187.69;5052923;28;19978;-75
2023/03/24 09:51:02;;;;;;;;;;;;;;;12.16;100.00;100188.53;5035690;28;20354;-76
2023/03/24 09:53:30;;;;;;;;;;;;;;;12.02;100.00;100180.94;5051371;28;20339;-76
2023/03/24 09:55:56;;;;;;;;;;;;;;;11.72;100.00;100189.00;5051529;28;19917;-75
2023/03/24 09:58:21;;;;;;;;;;;;;;;11.52;100.00;100197.06;5052975;28;19926;-76
2023/03/24 10:00:47;;;;;;;;;;;;;;;11.44;100.00;100196.09;5054563;28;19920;-75
2023/03/24 10:03:21;;;;;;;;;;;;;;;11.60;100.00;100196.34;5051391;28;19956;-74
2023/03/24 10:05:55;;;;;;;;;;;;;;;11.48;100.00;100197.50;5048137;28;20282;-76
2023/03/24 10:08:34;;;;;;;;;;;;;;;11.60;100.00;100206.28;5049610;28;19927;-76
2023/03/24 10:11:03;;;;;;;;;;;;;;;11.69;100.00;100206.28;5036676;28;20302;-76
2023/03/24 10:13:48;;;;;;;;;;;;;;;12.10;100.00;100198.03;5053143;28;19974;-76
2023/03/24 10:16:13;;;;;;;;;;;;;;;13.12;100.00;100198.13;5051103;28;20294;-76
2023/03/24 10:18:51;;;;;;;;;;;;;;;13.38;100.00;100204.63;5055295;28;20437;-77
2023/03/24 10:21:21;;;;;;;;;;;;;;;14.07;100.00;100211.16;5054179;28;20023;-76
2023/03/24 10:24:01;;;;;;;;;;;;;;;13.93;100.00;100214.41;5054521;28;19940;-76
2023/03/24 10:26:39;;;;;;;;;;;;;;;13.94;100.00;100218.81;5055661;28;20125;-75
2023/03/24 10:29:22;;;;;;;;;;;;;;;13.15;100.00;100223.94;5051740;28;19920;-76
2023/03/24 10:31:58;;;;;;;;;;;;;;;12.52;100.00;100212.06;5054769;28;19924;-76
2023/03/24 10:34:26;;;;;;;;;;;;;;;12.38;100.00;100225.03;5053258;28;20385;-76
2023/03/24 10:36:52;;;;;;;;;;;;;;;12.36;100.00;100226.13;5052951;28;20330;-75
2023/03/24 10:39:18;;;;;;;;;;;;;;;11.98;100.00;100226.06;5053817;28;20249;-74
2023/03/24 10:41:43;;;;;;;;;;;;;;;11.57;100.00;100228.06;5053319;28;19916;-75
2023/03/24 10:44:09;;;;;;;;;;;;;;;11.82;100.00;100232.00;5054810;28;20015;-76
2023/03/24 10:46:34;;;;;;;;;;;;;;;11.89;100.00;100232.31;5057313;28;20299;-76
2023/03/24 10:49:08;;;;;;;;;;;;;;;11.62;100.00;100233.88;5050786;28;19928;-77
2023/03/24 10:51:34;;;;;;;;;;;;;;;11.63;100.00;100236.41;5054326;28;19924;-76
2023/03/24 10:54:18;;;;;;;;;;;;;;;11.70;100.00;100232.19;5049722;28;19990;-77
2023/03/24 10:56:56;;;;;;;;;;;;;;;12.30;100.00;100228.44;5047230;28;19964;-77
2023/03/24 10:59:30;;;;;;;;;;;;;;;12.22;100.00;100232.84;5052455;28;19927;-76
2023/03/24 11:02:08;;;;;;;;;;;;;;;12.12;100.00;100230.16;5053082;28;20366;-76
2023/03/24 11:04:33;;;;;;;;;;;;;;;11.91;100.00;100233.03;5054012;28;19920;-77
2023/03/24 11:07:03;;;;;;;;;;;;;;;11.93;100.00;100226.50;5052642;28;19927;-76
2023/03/24 11:09:31;;;;;;;;;;;;;;;11.90;100.00;100215.19;5055787;28;19928;-77
2023/03/24 11:11:58;;;;;;;;;;;;;;;12.02;100.00;100219.44;5057616;28;20370;-77
2023/03/24 11:14:24;;;;;;;;;;;;;;;12.21;100.00;100226.63;5053466;28;19920;-76
2023/03/24 11:16:50;;;;;;;;;;;;;;;12.35;100.00;100224.44;5051997;28;20001;-76
2023/03/24 11:19:22;;;;;;;;;;;;;;;12.29;100.00;100215.13;5052670;28;19928;-77
2023/03/24 11:21:48;;;;;;;;;;;;;;;12.28;100.00;100222.34;5047392;28;20194;-77
2023/03/24 11:24:14;;;;;;;;;;;;;;;12.24;100.00;100215.56;5052623;28;19920;-76
2023/03/24 11:26:39;;;;;;;;;;;;;;;12.09;100.00;100220.56;5050331;28;20417;-77
2023/03/24 11:29:09;;;;;;;;;;;;;;;12.05;100.00;100215.63;5052020;28;19966;-76
2023/03/24 11:31:37;;;;;;;;;;;;;;;12.27;100.00;100223.34;5051827;28;20429;-76
2023/03/24 11:34:05;;;;;;;;;;;;;;;12.59;100.00;100213.19;5035709;28;20512;-77
2023/03/24 11:36:33;;;;;;;;;;;;;;;12.47;100.00;100214.34;5053456;28;19979;-77
2023/03/24 11:38:59;;;;;;;;;;;;;;;12.35;100.00;100227.13;5056328;28;20285;-77
2023/03/24 11:41:24;;;;;;;;;;;;;;;12.40;100.00;100223.03;5048071;28;19963;-78
2023/03/24 11:43:49;;;;;;;;;;;;;;;12.53;100.00;100211.06;5052038;28;19975;-77
2023/03/24 11:46:19;;;;;;;;;;;;;;;12.56;100.00;100208.09;5050102;28;19928;-77
2023/03/24 11:48:52;;;;;;;;;;;;;;;12.41;100.00;100200.50;5046664;28;20006;-78
2023/03/24 11:51:22;;;;;;;;;;;;;;;12.09;100.00;100220.56;5043093;28;19927;-78
2023/03/24 11:53:49;;;;;;;;;;;;;;;11.85;100.00;100219.16;5037037;28;19920;-78
2023/03/24 11:56:24;;;;;;;;;;;;;;;11.82;100.00;100226.63;5051113;28;20308;-77
2023/03/24 11:58:55;;;;;;;;;;;;;;;11.75;100.00;100230.91;5052936;28;19924;-77
2023/03/24 12:01:20;;;;;;;;;;;;;;;11.34;100.00;100234.53;5036742;28;19924;-78
2023/03/24 12:03:55;;;;;;;;;;;;;;;11.48;100.00;100235.97;5053683;28;19921;-75
2023/03/24 12:06:34;;;;;;;;;;;;;;;11.19;100.00;100250.22;5060266;28;20362;-77
2023/03/24 12:09:19;;;;;;;;;;;;;;;11.14;100.00;100243.56;5043122;28;20060;-76
2023/03/24 12:11:50;;;;;;;;;;;;;;;11.04;100.00;100241.69;5038839;28;19921;-76
2023/03/24 12:14:18;;;;;;;;;;;;;;;10.87;100.00;100251.25;5040610;28;19916;-77
2023/03/24 12:16:52;;;;;;;;;;;;;;;10.82;100.00;100252.66;5034022;28;20323;-76
2023/03/24 12:19:30;;;;;;;;;;;;;;;10.95;100.00;100264.84;5030190;28;20320;-77
2023/03/24 12:21:59;;;;;;;;;;;;;;;10.95;100.00;100261.34;5031211;28;20028;-77
2023/03/24 12:24:34;;;;;;;;;;;;;;;11.04;100.00;100265.03;5050155;28;19920;-77
2023/03/24 12:26:59;;;;;;;;;;;;;;;10.84;100.00;100262.28;5048650;28;19929;-77
2023/03/24 12:29:37;;;;;;;;;;;;;;;10.84;100.00;100269.47;5050667;28;19947;-75
2023/03/24 12:32:21;;;;;;;;;;;;;;;11.00;100.00;100268.97;5025072;28;20465;-77
2023/03/24 12:34:56;;;;;;;;;;;;;;;11.24;100.00;100261.41;5050855;28;19921;-78
2023/03/24 12:37:24;;;;;;;;;;;;;;;11.46;100.00;100253.25;5047817;28;20018;-78